createdAt,value
2018-09-19T00:00:36.677Z,47.20
2018-09-19T00:03:03.811Z,47.10
2018-09-19T00:05:30.913Z,47.10
2018-09-19T00:07:57.993Z,47.10
2018-09-19T00:10:25.075Z,46.90
2018-09-19T00:12:52.155Z,46.90
2018-09-19T00:15:19.234Z,46.90
2018-09-19T00:17:46.369Z,47.00
2018-09-19T00:20:13.492Z,46.90
2018-09-19T00:22:40.539Z,46.80
2018-09-19T00:25:07.626Z,46.80
2018-09-19T00:27:34.701Z,46.70
2018-09-19T00:30:01.784Z,46.50
2018-09-19T00:32:29.154Z,46.60
2018-09-19T00:34:56.249Z,46.40
2018-09-19T00:37:23.333Z,46.30
2018-09-19T00:39:52.415Z,46.60
2018-09-19T00:42:19.521Z,46.60
2018-09-19T00:44:46.605Z,46.70
2018-09-19T00:47:13.677Z,46.30
2018-09-19T00:49:40.772Z,46.70
2018-09-19T00:52:07.918Z,46.70
2018-09-19T00:54:35.034Z,46.70
2018-09-19T00:57:02.449Z,46.60
2018-09-19T00:59:29.525Z,46.80
2018-09-19T01:01:56.617Z,46.80
2018-09-19T01:04:23.710Z,46.90
2018-09-19T01:06:50.784Z,46.80
2018-09-19T01:09:17.870Z,46.70
2018-09-19T01:11:44.946Z,46.70
2018-09-19T01:14:12.023Z,46.80
2018-09-19T01:16:39.124Z,46.80
2018-09-19T01:19:06.545Z,46.70
2018-09-19T01:21:33.649Z,46.70
2018-09-19T01:24:00.741Z,46.60
2018-09-19T01:26:27.835Z,46.70
2018-09-19T01:28:54.917Z,46.60
2018-09-19T01:31:21.994Z,46.60
2018-09-19T01:33:49.087Z,46.70
2018-09-19T01:36:16.165Z,46.70
2018-09-19T01:38:43.265Z,46.80
2018-09-19T01:41:10.373Z,46.80
2018-09-19T01:43:37.481Z,46.80
2018-09-19T01:46:04.565Z,46.80
2018-09-19T01:48:32.003Z,46.90
2018-09-19T01:50:59.075Z,46.90
2018-09-19T01:53:26.141Z,47.00
2018-09-19T01:55:53.237Z,47.00
2018-09-19T01:58:20.337Z,47.10
2018-09-19T02:00:47.533Z,47.10
2018-09-19T02:03:14.612Z,47.10
2018-09-19T02:05:41.694Z,47.20
2018-09-19T02:08:08.782Z,47.20
2018-09-19T02:10:35.881Z,47.20
2018-09-19T02:13:03.025Z,47.20
2018-09-19T02:15:30.183Z,47.20
2018-09-19T02:17:57.311Z,47.20
2018-09-19T02:20:24.381Z,47.30
2018-09-19T02:22:51.461Z,47.30
2018-09-19T02:25:18.680Z,47.30
2018-09-19T02:27:46.089Z,47.40
2018-09-19T02:30:13.191Z,47.40
2018-09-19T02:32:40.288Z,47.50
2018-09-19T02:35:07.383Z,47.50
2018-09-19T02:37:34.462Z,47.40
2018-09-19T02:40:01.550Z,47.50
2018-09-19T02:42:28.651Z,47.40
2018-09-19T02:44:55.760Z,47.40
2018-09-19T02:47:22.855Z,47.30
2018-09-19T02:49:49.957Z,47.20
2018-09-19T02:52:17.662Z,47.20
2018-09-19T02:54:44.718Z,47.10
2018-09-19T02:57:12.187Z,47.10
2018-09-19T02:59:39.298Z,47.00
2018-09-19T03:02:06.397Z,46.90
2018-09-19T03:04:33.493Z,46.90
2018-09-19T03:07:00.577Z,46.90
2018-09-19T03:09:27.679Z,46.80
2018-09-19T03:11:54.770Z,46.80
2018-09-19T03:14:21.857Z,46.80
2018-09-19T03:16:48.937Z,46.90
2018-09-19T03:19:16.052Z,46.80
2018-09-19T03:21:43.138Z,46.80
2018-09-19T03:24:10.505Z,46.70
2018-09-19T03:26:37.583Z,46.80
2018-09-19T03:29:04.680Z,46.80
2018-09-19T03:31:31.796Z,46.80
2018-09-19T03:33:58.881Z,46.80
2018-09-19T03:36:25.979Z,46.80
2018-09-19T03:38:53.331Z,46.90
2018-09-19T03:41:20.409Z,46.90
2018-09-19T03:43:47.543Z,47.00
2018-09-19T03:46:14.749Z,46.90
2018-09-19T03:48:41.840Z,46.80
2018-09-19T03:51:08.994Z,46.90
2018-09-19T03:53:36.017Z,46.90
2018-09-19T03:56:03.101Z,46.90
2018-09-19T03:58:30.189Z,46.90
2018-09-19T04:00:57.585Z,46.90
2018-09-19T04:03:24.675Z,47.00
2018-09-19T04:05:51.801Z,47.00
2018-09-19T04:08:18.936Z,47.00
2018-09-19T04:10:46.031Z,47.00
2018-09-19T04:13:13.125Z,47.10
2018-09-19T04:15:40.223Z,46.90
2018-09-19T04:18:07.311Z,46.90
2018-09-19T04:20:34.397Z,46.90
2018-09-19T04:23:01.773Z,46.90
2018-09-19T04:25:28.855Z,46.90
2018-09-19T04:27:55.938Z,46.70
2018-09-19T04:30:23.034Z,46.90
2018-09-19T04:32:50.178Z,46.90
2018-09-19T04:35:17.275Z,46.60
2018-09-19T04:37:44.401Z,46.90
2018-09-19T04:40:11.498Z,46.90
2018-09-19T04:42:38.593Z,46.90
2018-09-19T04:45:11.739Z,46.90
2018-09-19T04:47:38.802Z,47.00
2018-09-19T04:50:06.046Z,47.00
2018-09-19T04:52:34.472Z,47.00
2018-09-19T04:55:02.257Z,47.10
2018-09-19T04:57:29.325Z,47.00
2018-09-19T04:59:56.414Z,47.10
2018-09-19T05:02:23.503Z,47.20
2018-09-19T05:04:50.585Z,47.20
2018-09-19T05:07:17.672Z,47.20
2018-09-19T05:09:44.749Z,47.30
2018-09-19T05:12:12.163Z,47.40
2018-09-19T05:14:39.258Z,47.40
2018-09-19T05:17:06.340Z,47.50
2018-09-19T05:19:33.473Z,47.60
2018-09-19T05:22:00.545Z,47.70
2018-09-19T05:24:27.630Z,47.80
2018-09-19T05:26:54.725Z,47.80
2018-09-19T05:29:21.797Z,47.90
2018-09-19T05:31:49.295Z,48.00
2018-09-19T05:34:16.393Z,48.00
2018-09-19T05:36:43.475Z,48.20
2018-09-19T05:39:10.566Z,48.30
2018-09-19T05:41:37.637Z,48.40
2018-09-19T05:44:04.721Z,48.50
2018-09-19T05:46:31.822Z,48.60
2018-09-19T05:48:58.885Z,48.80
2018-09-19T05:51:26.001Z,48.80
2018-09-19T05:53:53.101Z,48.90
2018-09-19T05:56:20.184Z,48.90
2018-09-19T05:58:47.250Z,49.00
2018-09-19T06:01:14.342Z,48.90
2018-09-19T06:03:41.423Z,48.90
2018-09-19T06:06:08.508Z,48.90
2018-09-19T06:08:35.825Z,48.90
2018-09-19T06:11:02.897Z,49.00
2018-09-19T06:13:29.991Z,49.10
2018-09-19T06:15:57.071Z,49.20
2018-09-19T06:18:24.154Z,49.30
2018-09-19T06:20:51.237Z,49.40
2018-09-19T06:23:18.539Z,49.50
2018-09-19T06:25:45.623Z,49.70
2018-09-19T06:28:12.740Z,49.90
2018-09-19T06:30:39.826Z,49.90
2018-09-19T06:33:06.965Z,50.00
2018-09-19T06:35:34.013Z,50.10
2018-09-19T06:38:01.099Z,50.10
2018-09-19T06:40:28.307Z,50.30
2018-09-19T06:42:55.278Z,50.30
2018-09-19T06:45:22.350Z,50.40
2018-09-19T06:47:49.449Z,50.50
2018-09-19T06:50:16.533Z,50.60
2018-09-19T06:52:43.617Z,50.70
2018-09-19T06:55:10.715Z,50.90
2018-09-19T06:57:37.785Z,51.00
2018-09-19T07:00:05.431Z,51.10
2018-09-19T07:02:32.526Z,51.10
2018-09-19T07:04:59.626Z,51.20
2018-09-19T07:07:26.742Z,51.50
2018-09-19T07:09:53.851Z,51.50
2018-09-19T07:12:20.940Z,51.80
2018-09-19T07:14:48.056Z,52.00
2018-09-19T07:17:15.138Z,52.10
2018-09-19T07:19:42.210Z,52.10
2018-09-19T07:22:09.297Z,52.00
2018-09-19T07:24:36.377Z,52.40
2018-09-19T07:27:03.478Z,52.50
2018-09-19T07:29:30.561Z,52.60
2018-09-19T07:31:57.660Z,52.60
2018-09-19T07:34:24.745Z,52.70
2018-09-19T07:36:51.840Z,52.90
2018-09-19T07:39:18.959Z,52.80
2018-09-19T07:41:46.043Z,52.90
2018-09-19T07:44:13.144Z,53.00
2018-09-19T07:46:40.298Z,53.00
2018-09-19T07:49:07.318Z,53.10
2018-09-19T07:51:34.681Z,53.10
2018-09-19T07:54:01.769Z,53.10
2018-09-19T07:56:28.881Z,53.00
2018-09-19T07:58:55.993Z,53.00
2018-09-19T08:01:23.106Z,53.00
2018-09-19T08:03:50.205Z,53.10
2018-09-19T08:06:17.278Z,53.10
2018-09-19T08:08:44.367Z,53.10
2018-09-19T08:11:11.480Z,53.00
2018-09-19T08:13:38.532Z,53.00
2018-09-19T08:16:05.649Z,53.10
2018-09-19T08:18:32.731Z,53.10
2018-09-19T08:20:59.814Z,53.20
2018-09-19T08:23:26.899Z,53.40
2018-09-19T08:25:53.985Z,53.20
2018-09-19T08:28:21.118Z,53.20
2018-09-19T08:30:50.309Z,53.20
2018-09-19T08:33:17.409Z,53.50
2018-09-19T08:35:44.552Z,53.10
2018-09-19T08:38:11.997Z,53.00
2018-09-19T08:40:39.088Z,52.90
2018-09-19T08:43:06.177Z,52.80
2018-09-19T08:45:33.274Z,52.80
2018-09-19T08:48:00.362Z,52.70
2018-09-19T08:50:27.498Z,52.70
2018-09-19T08:52:54.553Z,52.60
2018-09-19T08:55:21.643Z,52.60
2018-09-19T08:57:48.724Z,52.50
2018-09-19T09:00:15.827Z,52.30
2018-09-19T09:02:42.909Z,52.50
2018-09-19T09:05:10.355Z,52.20
2018-09-19T09:07:37.399Z,52.10
2018-09-19T09:10:04.606Z,52.10
2018-09-19T09:12:31.888Z,52.10
2018-09-19T09:14:58.930Z,52.10
2018-09-19T09:17:26.301Z,52.10
2018-09-19T09:19:53.433Z,52.10
2018-09-19T09:22:20.486Z,52.10
2018-09-19T09:24:47.565Z,52.00
2018-09-19T09:27:14.679Z,51.90
2018-09-19T09:29:41.758Z,51.80
2018-09-19T09:32:08.846Z,51.80
2018-09-19T09:34:36.158Z,51.50
2018-09-19T09:37:03.264Z,51.30
2018-09-19T09:39:30.346Z,51.20
2018-09-19T09:41:57.452Z,51.10
2018-09-19T09:44:24.581Z,51.00
2018-09-19T09:46:51.661Z,50.90
2018-09-19T09:49:18.745Z,50.80
2018-09-19T09:51:45.859Z,50.60
2018-09-19T09:54:12.933Z,50.30
2018-09-19T09:56:40.058Z,50.00
2018-09-19T09:59:07.142Z,49.70
2018-09-19T10:01:34.217Z,49.40
2018-09-19T10:04:01.305Z,49.00
2018-09-19T10:06:28.453Z,48.80
2018-09-19T10:08:55.473Z,49.00
2018-09-19T10:11:22.557Z,48.50
2018-09-19T10:13:49.673Z,48.40
2018-09-19T10:16:16.725Z,48.30
2018-09-19T10:18:44.101Z,48.00
2018-09-19T10:21:11.261Z,47.80
2018-09-19T10:23:38.351Z,47.90
2018-09-19T10:26:05.465Z,47.70
2018-09-19T10:28:33.073Z,47.70
2018-09-19T10:31:00.174Z,47.40
2018-09-19T10:33:27.261Z,47.20
2018-09-19T10:35:54.335Z,46.40
2018-09-19T10:38:21.421Z,46.30
2018-09-19T10:40:48.519Z,46.20
2018-09-19T10:43:15.773Z,46.20
2018-09-19T10:45:42.857Z,46.10
2018-09-19T10:48:09.929Z,45.70
2018-09-19T10:50:37.010Z,45.20
2018-09-19T10:53:04.093Z,44.60
2018-09-19T10:55:31.176Z,44.70
2018-09-19T10:57:58.567Z,44.50
2018-09-19T11:00:25.659Z,43.60
2018-09-19T11:02:52.737Z,43.20
2018-09-19T11:05:19.816Z,43.00
2018-09-19T11:07:46.917Z,42.90
2018-09-19T11:10:14.079Z,42.30
2018-09-19T11:12:41.178Z,42.30
2018-09-19T11:15:08.254Z,41.80
2018-09-19T11:17:35.353Z,41.60
2018-09-19T11:20:02.470Z,41.50
2018-09-19T11:22:29.562Z,41.20
2018-09-19T11:24:56.673Z,40.80
2018-09-19T11:27:23.757Z,40.80
2018-09-19T11:29:50.998Z,40.90
2018-09-19T11:32:18.088Z,41.00
2018-09-19T11:34:45.165Z,41.30
2018-09-19T11:37:12.258Z,41.30
2018-09-19T11:39:39.353Z,41.30
2018-09-19T11:42:06.429Z,41.50
2018-09-19T11:44:33.505Z,41.90
2018-09-19T11:47:00.590Z,41.40
2018-09-19T11:49:27.665Z,41.30
2018-09-19T11:51:54.767Z,41.00
2018-09-19T11:54:21.847Z,40.70
2018-09-19T11:56:48.941Z,41.30
2018-09-19T11:59:16.022Z,41.60
2018-09-19T12:01:43.138Z,41.90
2018-09-19T12:04:10.217Z,42.10
2018-09-19T12:06:37.305Z,42.30
2018-09-19T12:09:07.814Z,42.40
2018-09-19T12:11:34.903Z,42.30
2018-09-19T12:14:01.989Z,42.20
2018-09-19T12:16:29.093Z,42.20
2018-09-19T12:18:56.166Z,42.10
2018-09-19T12:21:23.249Z,42.20
2018-09-19T12:23:50.369Z,42.20
2018-09-19T12:26:17.454Z,42.20
2018-09-19T12:28:44.534Z,42.10
2018-09-19T12:31:11.610Z,42.20
2018-09-19T12:33:38.765Z,42.20
2018-09-19T12:36:05.925Z,42.10
2018-09-19T12:38:33.043Z,41.70
2018-09-19T12:41:00.151Z,42.00
2018-09-19T12:43:27.233Z,41.80
2018-09-19T12:45:54.318Z,41.90
2018-09-19T12:48:21.414Z,41.80
2018-09-19T12:50:48.485Z,41.70
2018-09-19T12:53:16.252Z,41.40
2018-09-19T12:55:43.353Z,41.40
2018-09-19T12:58:10.438Z,41.40
2018-09-19T13:00:37.509Z,41.50
2018-09-19T13:03:04.590Z,41.60
2018-09-19T13:05:31.681Z,41.50
2018-09-19T13:07:58.765Z,41.60
2018-09-19T13:10:25.865Z,41.20
2018-09-19T13:12:52.942Z,41.00
2018-09-19T13:15:20.030Z,41.20
2018-09-19T13:17:47.117Z,41.10
2018-09-19T13:20:14.245Z,41.20
2018-09-19T13:22:41.321Z,41.30
2018-09-19T13:25:08.398Z,41.00
2018-09-19T13:27:35.497Z,40.80
2018-09-19T13:30:02.581Z,40.40
2018-09-19T13:32:29.661Z,40.50
2018-09-19T13:34:56.742Z,40.30
2018-09-19T13:37:23.822Z,40.40
2018-09-19T13:39:50.951Z,40.30
2018-09-19T13:42:18.246Z,40.30
2018-09-19T13:44:45.334Z,40.40
2018-09-19T13:47:12.410Z,40.50
2018-09-19T13:49:57.637Z,40.60
2018-09-19T13:52:24.718Z,40.70
2018-09-19T13:54:51.784Z,40.70
2018-09-19T13:57:18.881Z,40.70
2018-09-19T13:59:45.973Z,40.70
2018-09-19T14:02:13.076Z,40.80
2018-09-19T14:04:40.166Z,40.70
2018-09-19T14:07:07.266Z,40.60
2018-09-19T14:09:34.365Z,40.70
2018-09-19T14:12:01.629Z,40.50
2018-09-19T14:14:28.721Z,40.60
2018-09-19T14:16:55.805Z,40.70
2018-09-19T14:19:22.908Z,41.10
2018-09-19T14:21:49.973Z,40.70
2018-09-19T14:24:17.046Z,40.60
2018-09-19T14:26:44.162Z,40.70
2018-09-19T14:29:11.241Z,40.70
2018-09-19T14:31:38.325Z,40.80
2018-09-19T14:34:05.558Z,40.80
2018-09-19T14:36:32.910Z,40.70
2018-09-19T14:38:59.995Z,40.70
2018-09-19T14:41:27.083Z,40.50
2018-09-19T14:43:54.157Z,40.40
2018-09-19T14:46:21.233Z,40.00
2018-09-19T14:48:48.398Z,39.80
2018-09-19T14:51:15.427Z,39.80
2018-09-19T14:53:42.529Z,40.00
2018-09-19T14:56:09.620Z,39.90
2018-09-19T14:58:36.724Z,39.90
2018-09-19T15:01:03.877Z,39.70
2018-09-19T15:03:30.973Z,39.70
2018-09-19T15:05:58.047Z,39.90
2018-09-19T15:08:25.138Z,39.80
2018-09-19T15:10:52.230Z,39.90
2018-09-19T15:13:19.311Z,39.90
2018-09-19T15:15:46.378Z,39.90
2018-09-19T15:18:13.482Z,39.80
2018-09-19T15:20:40.558Z,39.70
2018-09-19T15:23:07.626Z,39.70
2018-09-19T15:25:36.702Z,39.70
2018-09-19T15:28:03.802Z,39.80
2018-09-19T15:30:30.881Z,39.80
2018-09-19T15:32:58.074Z,39.90
2018-09-19T15:35:25.137Z,40.00
2018-09-19T15:37:52.217Z,40.20
2018-09-19T15:40:19.312Z,40.30
2018-09-19T15:42:46.401Z,40.40
2018-09-19T15:45:13.477Z,40.50
2018-09-19T15:47:40.578Z,40.40
2018-09-19T15:50:07.660Z,40.50
2018-09-19T15:52:34.877Z,40.60
2018-09-19T15:55:01.968Z,40.50
2018-09-19T15:57:29.101Z,40.50
2018-09-19T16:00:00.245Z,40.60
2018-09-19T16:02:27.310Z,40.60
2018-09-19T16:04:54.401Z,40.80
2018-09-19T16:07:21.542Z,41.00
2018-09-19T16:09:48.649Z,41.20
2018-09-19T16:12:15.721Z,41.30
2018-09-19T16:14:42.825Z,41.50
2018-09-19T16:17:10.178Z,41.60
2018-09-19T16:19:37.367Z,41.90
2018-09-19T16:22:04.449Z,42.10
2018-09-19T16:24:31.538Z,42.30
2018-09-19T16:26:58.621Z,42.70
2018-09-19T16:29:25.813Z,42.40
2018-09-19T16:31:52.890Z,42.60
2018-09-19T16:34:19.965Z,42.70
2018-09-19T16:36:47.049Z,42.70
2018-09-19T16:39:14.165Z,44.20
2018-09-19T16:41:41.237Z,44.00
2018-09-19T16:44:08.365Z,43.90
2018-09-19T16:46:36.269Z,44.00
2018-09-19T16:49:03.738Z,43.80
2018-09-19T16:51:30.882Z,43.60
2018-09-19T16:53:58.973Z,43.50
2018-09-19T16:56:26.058Z,43.10
2018-09-19T16:58:53.337Z,43.10
2018-09-19T17:01:20.424Z,43.10
2018-09-19T17:03:47.513Z,43.10
2018-09-19T17:06:16.626Z,43.10
2018-09-19T17:08:43.710Z,43.10
2018-09-19T17:11:10.802Z,43.20
2018-09-19T17:13:37.885Z,43.20
2018-09-19T17:16:05.146Z,43.20
2018-09-19T17:18:32.226Z,43.30
2018-09-19T17:20:59.306Z,43.40
2018-09-19T17:23:26.386Z,43.30
2018-09-19T17:25:53.582Z,43.20
2018-09-19T17:28:20.925Z,43.20
2018-09-19T17:30:48.026Z,43.20
2018-09-19T17:33:15.111Z,43.40
2018-09-19T17:35:42.202Z,43.40
2018-09-19T17:38:09.321Z,43.40
2018-09-19T17:40:36.404Z,43.40
2018-09-19T17:43:03.492Z,43.40
2018-09-19T17:45:30.583Z,43.50
2018-09-19T17:47:57.681Z,43.50
2018-09-19T17:50:24.822Z,43.50
2018-09-19T17:52:51.897Z,43.60
2018-09-19T17:55:18.979Z,43.60
2018-09-19T17:57:46.073Z,43.70
2018-09-19T18:00:13.167Z,43.70
2018-09-19T18:02:40.511Z,43.80
2018-09-19T18:05:07.826Z,43.80
2018-09-19T18:07:34.911Z,43.90
2018-09-19T18:10:02.006Z,44.00
2018-09-19T18:12:29.129Z,44.10
2018-09-19T18:14:56.284Z,44.20
2018-09-19T18:17:23.318Z,44.30
2018-09-19T18:19:50.403Z,44.30
2018-09-19T18:22:17.577Z,44.80
2018-09-19T18:24:44.652Z,44.40
2018-09-19T18:27:11.740Z,44.50
2018-09-19T18:29:38.827Z,44.60
2018-09-19T18:32:06.017Z,44.70
2018-09-19T18:34:33.100Z,44.80
2018-09-19T18:37:00.300Z,44.80
2018-09-19T18:39:27.370Z,44.80
2018-09-19T18:41:54.457Z,44.80
2018-09-19T18:44:26.455Z,44.80
2018-09-19T18:46:53.546Z,44.90
2018-09-19T18:49:20.643Z,44.90
2018-09-19T18:51:47.765Z,44.90
2018-09-19T18:54:19.486Z,45.00
2018-09-19T18:56:46.561Z,45.10
2018-09-19T18:59:13.650Z,45.40
2018-09-19T19:01:40.755Z,45.70
2018-09-19T19:04:07.837Z,45.90
2018-09-19T19:06:34.933Z,45.90
2018-09-19T19:09:02.068Z,45.90
2018-09-19T19:11:29.162Z,45.90
2018-09-19T19:13:56.260Z,46.00
2018-09-19T19:16:23.389Z,45.80
2018-09-19T19:18:50.847Z,45.70
2018-09-19T19:21:17.894Z,45.70
2018-09-19T19:23:44.970Z,45.80
2018-09-19T19:26:12.374Z,45.80
2018-09-19T19:28:39.454Z,45.80
2018-09-19T19:31:06.531Z,45.90
2018-09-19T19:33:33.615Z,45.90
2018-09-19T19:36:00.722Z,45.90
2018-09-19T19:38:28.153Z,45.90
2018-09-19T19:40:55.226Z,45.80
2018-09-19T19:43:22.306Z,45.80
2018-09-19T19:45:49.459Z,45.80
2018-09-19T19:48:16.565Z,45.80
2018-09-19T19:50:43.673Z,45.80
2018-09-19T19:53:10.806Z,45.80
2018-09-19T19:55:37.884Z,45.80
2018-09-19T19:58:05.162Z,45.70
2018-09-19T20:00:32.247Z,45.60
2018-09-19T20:02:59.329Z,45.60
2018-09-19T20:05:26.419Z,45.70
2018-09-19T20:07:53.513Z,45.70
2018-09-19T20:10:20.586Z,45.60
2018-09-19T20:12:47.682Z,45.70
2018-09-19T20:15:14.778Z,45.80
2018-09-19T20:17:41.866Z,46.10
2018-09-19T20:20:08.968Z,46.30
2018-09-19T20:22:36.065Z,46.40
2018-09-19T20:25:03.153Z,46.10
2018-09-19T20:27:30.237Z,46.50
2018-09-19T20:29:57.377Z,46.50
2018-09-19T20:32:24.430Z,46.60
2018-09-19T20:34:51.534Z,46.70
2018-09-19T20:37:18.630Z,46.60
2018-09-19T20:39:45.714Z,46.70
2018-09-19T20:42:12.798Z,46.70
2018-09-19T20:44:39.878Z,46.80
2018-09-19T20:47:06.961Z,47.00
2018-09-19T20:49:34.046Z,47.10
2018-09-19T20:52:01.142Z,47.00
2018-09-19T20:54:28.251Z,46.80
2018-09-19T20:56:55.339Z,46.80
2018-09-19T20:59:22.418Z,46.70
2018-09-19T21:01:49.529Z,46.60
2018-09-19T21:04:16.680Z,46.60
2018-09-19T21:06:43.714Z,46.50
2018-09-19T21:09:10.802Z,46.50
2018-09-19T21:11:37.890Z,46.50
2018-09-19T21:14:04.965Z,46.50
2018-09-19T21:16:32.070Z,46.50
2018-09-19T21:18:59.185Z,46.50
2018-09-19T21:21:26.275Z,46.50
2018-09-19T21:23:53.370Z,46.50
2018-09-19T21:26:20.470Z,46.60
2018-09-19T21:28:47.555Z,46.60
2018-09-19T21:31:14.651Z,46.60
2018-09-19T21:33:42.111Z,46.60
2018-09-19T21:36:09.188Z,46.70
2018-09-19T21:38:36.273Z,46.60
2018-09-19T21:41:03.362Z,46.60
2018-09-19T21:43:30.590Z,46.60
2018-09-19T21:45:57.703Z,46.60
2018-09-19T21:48:25.146Z,46.50
2018-09-19T21:50:52.235Z,46.60
2018-09-19T21:53:19.325Z,46.50
2018-09-19T21:55:46.591Z,46.50
2018-09-19T21:58:13.718Z,46.60
2018-09-19T22:00:41.227Z,46.80
2018-09-19T22:03:08.330Z,46.80
2018-09-19T22:05:35.403Z,46.90
2018-09-19T22:08:02.513Z,46.80
2018-09-19T22:10:29.821Z,46.80
2018-09-19T22:12:56.906Z,46.70
2018-09-19T22:15:23.980Z,46.80
2018-09-19T22:17:51.081Z,46.80
2018-09-19T22:20:18.166Z,46.80
2018-09-19T22:22:45.238Z,46.90
2018-09-19T22:25:12.315Z,47.20
2018-09-19T22:27:39.407Z,46.90
2018-09-19T22:30:06.499Z,46.80
2018-09-19T22:32:33.946Z,46.80
2018-09-19T22:35:01.045Z,46.90
2018-09-19T22:37:28.138Z,46.90
2018-09-19T22:39:55.237Z,46.90
2018-09-19T22:42:22.333Z,47.00
2018-09-19T22:44:49.413Z,47.00
2018-09-19T22:47:16.566Z,47.00
2018-09-19T22:49:43.633Z,47.30
2018-09-19T22:52:10.700Z,47.00
2018-09-19T22:54:37.786Z,47.00
2018-09-19T22:57:04.882Z,47.10
2018-09-19T22:59:31.973Z,47.10
2018-09-19T23:01:59.427Z,47.40
2018-09-19T23:04:26.489Z,47.20
2018-09-19T23:06:53.593Z,47.20
2018-09-19T23:09:20.681Z,47.20
2018-09-19T23:11:47.765Z,47.20
2018-09-19T23:14:14.846Z,47.40
2018-09-19T23:16:42.234Z,47.30
2018-09-19T23:19:09.318Z,47.40
2018-09-19T23:21:36.413Z,47.50
2018-09-19T23:24:39.097Z,47.50
2018-09-19T23:27:06.182Z,47.60
2018-09-19T23:29:33.262Z,47.60
2018-09-19T23:32:00.361Z,47.60
2018-09-19T23:34:27.442Z,47.70
2018-09-19T23:36:54.549Z,47.70
2018-09-19T23:39:21.638Z,47.70
2018-09-19T23:41:48.849Z,47.80
2018-09-19T23:44:15.938Z,47.80
2018-09-19T23:46:43.025Z,47.90
2018-09-19T23:49:10.105Z,47.90
2018-09-19T23:51:37.201Z,47.80
2018-09-19T23:54:04.285Z,48.00
2018-09-19T23:56:31.362Z,47.90
2018-09-19T23:58:58.440Z,47.90
